Dera Bugti Weather



Dera Bugti's Current Weather

Temprature 29.05o clear sky

clear sky

Rain: 0 %

Min Temprature29.05o
Max Temprature29.05o
Humidity32
Wind Speed5.09 m/h
Sun Rise05:27:43
Sun Set19:13:00
Current Time: 24-May-2022 07:45:54
Lat/Lon: 29.0307, 69.151




Dera Bugti's Geo Location



Dera Bugti's Weather Forecast

Time Overall Temp Min Temp Max Temp Humidity Wind Speed Rain
24-May-2022 (Tue)
08:00:00 clear sky 29.050 29.050 29.050 32 5.09 m/h 0 %
11:00:00 clear sky 31.040 31.040 35.010 27 4.25 m/h 0 %
14:00:00 clear sky 34.970 34.970 37.930 18 5.82 m/h 0 %
17:00:00 clear sky 36.930 36.930 36.930 14 7.07 m/h 0 %
20:00:00 clear sky 32.820 32.820 32.820 20 3.63 m/h 0 %
23:00:00 clear sky 30.970 30.970 30.970 23 2.24 m/h 0 %
25-May-2022 (Wed)
02:00:00 clear sky 29.680 29.680 29.680 24 2.21 m/h 0 %
05:00:00 clear sky 28.710 28.710 28.710 25 3.53 m/h 0 %
08:00:00 clear sky 31.500 31.500 31.500 26 4.57 m/h 0 %
11:00:00 clear sky 36.780 36.780 36.780 17 3.4 m/h 0 %
14:00:00 clear sky 39.670 39.670 39.670 12 3.74 m/h 0 %
17:00:00 clear sky 40.040 40.040 40.040 10 4.93 m/h 0 %
20:00:00 clear sky 34.560 34.560 34.560 13 1.84 m/h 0 %
23:00:00 clear sky 32.140 32.140 32.140 14 0.6 m/h 0 %
26-May-2022 (Thu)
02:00:00 clear sky 30.810 30.810 30.810 16 1.88 m/h 0 %
05:00:00 clear sky 28.710 28.710 28.710 21 0.98 m/h 0 %
08:00:00 clear sky 34.910 34.910 34.910 19 1.7 m/h 0 %
11:00:00 clear sky 39.740 39.740 39.740 19 4.95 m/h 0 %
14:00:00 clear sky 42.900 42.900 42.900 13 5.16 m/h 0 %
17:00:00 clear sky 43.610 43.610 43.610 8 5.06 m/h 0 %
20:00:00 clear sky 37.850 37.850 37.850 9 2.9 m/h 0 %
23:00:00 clear sky 33.750 33.750 33.750 23 3.15 m/h 0 %
27-May-2022 (Fri)
02:00:00 clear sky 30.050 30.050 30.050 48 1.87 m/h 0 %
05:00:00 clear sky 28.720 28.720 28.720 50 0.61 m/h 0 %
08:00:00 clear sky 35.800 35.800 35.800 27 2.56 m/h 0 %
11:00:00 clear sky 44.230 44.230 44.230 5 6.92 m/h 0 %
14:00:00 clear sky 45.580 45.580 45.580 3 8.46 m/h 0 %
17:00:00 clear sky 44.910 44.910 44.910 3 9.3 m/h 0 %
20:00:00 clear sky 38.810 38.810 38.810 4 7.18 m/h 0 %
23:00:00 clear sky 37.690 37.690 37.690 4 8.97 m/h 0 %
28-May-2022 (Sat)
02:00:00 clear sky 35.000 35.000 35.000 5 8.67 m/h 0 %
05:00:00 clear sky 30.850 30.850 30.850 6 4.86 m/h 0 %
08:00:00 clear sky 36.270 36.270 36.270 4 6.99 m/h 0 %
11:00:00 clear sky 40.710 40.710 40.710 4 7.2 m/h 0 %
14:00:00 clear sky 43.070 43.070 43.070 3 8.46 m/h 0 %
17:00:00 clear sky 43.080 43.080 43.080 2 11.25 m/h 0 %
20:00:00 clear sky 37.380 37.380 37.380 3 10.46 m/h 0 %
23:00:00 clear sky 34.790 34.790 34.790 4 7.99 m/h 0 %
29-May-2022 (Sun)
02:00:00 clear sky 31.870 31.870 31.870 5 5.03 m/h 0 %
05:00:00 clear sky 30.680 30.680 30.680 5 5.18 m/h 0 %

Famous Cities (61)